createdAt,value
2022-11-05T00:00:19.685Z,2.38
2022-11-05T00:03:05.011Z,2.70
2022-11-05T00:05:50.933Z,3.60
2022-11-05T00:08:36.173Z,3.00
2022-11-05T00:11:03.033Z,3.15
2022-11-05T00:13:48.291Z,3.45
2022-11-05T00:16:33.560Z,2.88
2022-11-05T00:19:10.184Z,2.42
2022-11-05T00:21:58.645Z,7.00
2022-11-05T00:24:43.936Z,5.82
2022-11-05T00:27:11.084Z,2.78
2022-11-05T00:29:37.800Z,4.47
2022-11-05T00:32:04.799Z,3.88
2022-11-05T00:34:31.549Z,3.60
2022-11-05T00:36:58.331Z,3.00
2022-11-05T00:39:24.967Z,4.65
2022-11-05T00:42:11.650Z,3.78
2022-11-05T00:44:56.731Z,3.08
2022-11-05T00:47:41.879Z,5.57
2022-11-05T00:50:10.743Z,4.35
2022-11-05T00:52:56.224Z,3.85
2022-11-05T00:55:42.032Z,3.65
2022-11-05T00:58:11.678Z,4.25
2022-11-05T01:00:41.254Z,5.35
2022-11-05T01:03:14.535Z,4.97
2022-11-05T01:05:47.094Z,6.72
2022-11-05T01:08:15.700Z,5.65
2022-11-05T01:10:48.600Z,5.20
2022-11-05T01:13:20.912Z,4.43
2022-11-05T01:15:48.587Z,6.70
2022-11-05T01:18:15.475Z,7.95
2022-11-05T01:20:42.467Z,3.80
2022-11-05T01:23:13.569Z,4.85
2022-11-05T01:25:44.409Z,5.03
2022-11-05T01:28:11.464Z,4.78
2022-11-05T01:30:39.106Z,5.70
2022-11-05T01:33:06.064Z,4.75
2022-11-05T01:35:32.797Z,5.78
2022-11-05T01:37:59.616Z,6.50
2022-11-05T01:40:26.455Z,4.18
2022-11-05T01:42:53.180Z,3.92
2022-11-05T01:45:25.483Z,6.35
2022-11-05T01:47:59.313Z,4.90
2022-11-05T01:50:57.283Z,3.65
2022-11-05T01:53:28.872Z,3.45
2022-11-05T01:56:01.961Z,4.20
2022-11-05T01:58:38.014Z,5.93
2022-11-05T02:01:04.870Z,3.85
2022-11-05T02:03:32.101Z,2.90
2022-11-05T02:06:02.247Z,3.47
2022-11-05T02:09:11.374Z,4.55
2022-11-05T02:11:38.153Z,3.45
2022-11-05T02:14:05.193Z,3.00
2022-11-05T02:16:46.840Z,3.75
2022-11-05T02:19:58.231Z,3.95
2022-11-05T02:22:45.866Z,2.35
2022-11-05T02:25:40.614Z,3.25
2022-11-05T02:28:17.299Z,3.83
2022-11-05T02:30:53.866Z,3.65
2022-11-05T02:33:30.583Z,3.47
2022-11-05T02:36:09.033Z,3.22
2022-11-05T02:39:01.085Z,3.65
2022-11-05T02:41:40.285Z,2.30
2022-11-05T02:44:35.919Z,2.95
2022-11-05T02:47:18.452Z,3.63
2022-11-05T02:49:59.015Z,3.13
2022-11-05T02:52:31.760Z,2.53
2022-11-05T02:55:08.125Z,6.03
2022-11-05T02:57:38.004Z,4.10
2022-11-05T03:00:08.722Z,2.45
2022-11-05T03:02:35.826Z,3.50
2022-11-05T03:05:03.536Z,2.55
2022-11-05T03:07:34.992Z,2.28
2022-11-05T03:10:40.771Z,2.95
2022-11-05T03:13:28.116Z,3.38
2022-11-05T03:16:02.551Z,3.22
2022-11-05T03:18:38.116Z,2.60
2022-11-05T03:21:04.944Z,4.80
2022-11-05T03:23:56.486Z,3.38
2022-11-05T03:26:31.388Z,3.50
2022-11-05T03:29:13.206Z,2.78
2022-11-05T03:31:41.716Z,2.72
2022-11-05T03:34:11.697Z,4.13
2022-11-05T03:36:42.416Z,3.47
2022-11-05T03:39:15.876Z,3.70
2022-11-05T03:41:47.941Z,4.82
2022-11-05T03:44:18.591Z,4.15
2022-11-05T03:46:49.441Z,3.85
2022-11-05T03:49:21.054Z,3.83
2022-11-05T03:51:57.164Z,3.22
2022-11-05T03:54:24.100Z,2.80
2022-11-05T03:57:02.316Z,4.68
2022-11-05T03:59:32.164Z,3.67
2022-11-05T04:01:59.186Z,2.95
2022-11-05T04:04:26.175Z,5.90
2022-11-05T04:07:11.521Z,4.15
2022-11-05T04:09:56.862Z,3.30
2022-11-05T04:12:42.034Z,4.35
2022-11-05T04:15:09.001Z,2.75
2022-11-05T04:17:35.719Z,3.72
2022-11-05T04:20:21.309Z,5.35
2022-11-05T04:23:06.491Z,2.50
2022-11-05T04:25:33.438Z,2.97
2022-11-05T04:28:03.208Z,3.42
2022-11-05T04:30:30.000Z,3.08
2022-11-05T04:33:08.324Z,3.50
2022-11-05T04:35:40.718Z,3.83
2022-11-05T04:38:12.347Z,3.00
2022-11-05T04:40:39.229Z,3.40
2022-11-05T04:43:13.590Z,3.72
2022-11-05T04:45:42.469Z,7.05
2022-11-05T04:48:09.330Z,3.75
2022-11-05T04:50:36.436Z,5.72
2022-11-05T04:53:03.321Z,5.85
2022-11-05T04:55:30.252Z,2.97
2022-11-05T04:57:56.992Z,4.53
2022-11-05T05:00:24.530Z,5.05
2022-11-05T05:02:51.694Z,3.25
2022-11-05T05:05:18.742Z,3.67
2022-11-05T05:07:45.722Z,4.07
2022-11-05T05:10:13.069Z,7.03
2022-11-05T05:12:39.856Z,3.85
2022-11-05T05:15:07.136Z,9.55
2022-11-05T05:17:34.137Z,7.15
2022-11-05T05:20:19.622Z,10.00
2022-11-05T05:22:55.145Z,17.90
2022-11-05T05:25:22.417Z,25.33
2022-11-05T05:27:49.185Z,13.90
2022-11-05T05:30:16.012Z,9.02
2022-11-05T05:32:42.752Z,6.90
2022-11-05T05:35:09.690Z,4.75
2022-11-05T05:37:36.436Z,7.00
2022-11-05T05:40:03.292Z,7.03
2022-11-05T05:42:30.221Z,6.65
2022-11-05T05:44:56.852Z,6.63
2022-11-05T05:47:23.648Z,4.63
2022-11-05T05:49:50.461Z,5.13
2022-11-05T05:52:17.235Z,5.00
2022-11-05T05:54:43.944Z,4.25
2022-11-05T05:57:10.830Z,4.00
2022-11-05T05:59:37.626Z,6.50
2022-11-05T06:02:04.520Z,8.05
2022-11-05T06:04:31.422Z,11.25
2022-11-05T06:06:58.135Z,7.65
2022-11-05T06:09:24.907Z,5.15
2022-11-05T06:11:51.630Z,3.25
2022-11-05T06:14:18.364Z,4.93
2022-11-05T06:16:45.340Z,4.72
2022-11-05T06:19:12.106Z,3.67
2022-11-05T06:21:38.868Z,4.82
2022-11-05T06:24:05.840Z,4.30
2022-11-05T06:26:32.580Z,3.85
2022-11-05T06:29:00.363Z,4.78
2022-11-05T06:31:27.195Z,4.75
2022-11-05T06:33:54.005Z,3.92
2022-11-05T06:36:21.325Z,4.57
2022-11-05T06:38:48.232Z,4.85
2022-11-05T06:41:15.451Z,4.10
2022-11-05T06:43:42.296Z,4.90
2022-11-05T06:46:11.003Z,5.50
2022-11-05T06:48:38.378Z,5.55
2022-11-05T06:51:06.904Z,6.13
2022-11-05T06:53:34.712Z,5.68
2022-11-05T06:56:07.768Z,6.15
2022-11-05T06:58:34.664Z,6.40
2022-11-05T07:01:03.370Z,6.22
2022-11-05T07:03:30.653Z,7.47
2022-11-05T07:05:59.572Z,7.97
2022-11-05T07:08:30.168Z,6.95
2022-11-05T07:10:57.008Z,8.15
2022-11-05T07:13:23.828Z,7.53
2022-11-05T07:15:50.629Z,11.23
2022-11-05T07:18:17.993Z,9.80
2022-11-05T07:20:44.718Z,7.43
2022-11-05T07:23:14.366Z,7.00
2022-11-05T07:25:43.034Z,7.55
2022-11-05T07:28:10.756Z,7.30
2022-11-05T07:30:38.305Z,6.13
2022-11-05T07:33:05.243Z,6.75
2022-11-05T07:35:32.152Z,6.45
2022-11-05T07:37:59.447Z,5.78
2022-11-05T07:40:27.886Z,5.95
2022-11-05T07:42:57.385Z,4.97
2022-11-05T07:45:25.066Z,6.35
2022-11-05T07:47:54.172Z,6.15
2022-11-05T07:50:22.813Z,6.63
2022-11-05T07:52:50.295Z,7.25
2022-11-05T07:55:19.160Z,5.15
2022-11-05T07:57:48.969Z,6.72
2022-11-05T08:00:23.865Z,6.18
2022-11-05T08:03:07.805Z,9.25
2022-11-05T08:05:37.620Z,7.90
2022-11-05T08:08:05.884Z,8.88
2022-11-05T08:10:34.252Z,7.75
2022-11-05T08:13:01.342Z,8.13
2022-11-05T08:15:28.716Z,8.02
2022-11-05T08:18:00.339Z,8.65
2022-11-05T08:20:27.916Z,8.63
2022-11-05T08:22:55.088Z,10.77
2022-11-05T08:25:21.972Z,7.57
2022-11-05T08:27:54.688Z,8.00
2022-11-05T08:30:22.361Z,9.45
2022-11-05T08:32:49.093Z,9.77
2022-11-05T08:35:15.822Z,10.05
2022-11-05T08:37:42.576Z,9.07
2022-11-05T08:40:09.696Z,10.07
2022-11-05T08:42:36.463Z,11.50
2022-11-05T08:45:03.570Z,9.30
2022-11-05T08:47:30.290Z,7.88
2022-11-05T08:49:57.109Z,9.77
2022-11-05T08:52:23.945Z,9.35
2022-11-05T08:54:50.690Z,9.65
2022-11-05T08:57:17.429Z,8.40
2022-11-05T08:59:44.118Z,8.98
2022-11-05T09:02:11.355Z,8.45
2022-11-05T09:04:38.223Z,9.95
2022-11-05T09:07:05.039Z,7.57
2022-11-05T09:09:32.837Z,7.95
2022-11-05T09:12:12.136Z,9.15
2022-11-05T09:14:39.651Z,10.30
2022-11-05T09:17:16.039Z,11.77
2022-11-05T09:19:42.749Z,7.35
2022-11-05T09:22:12.664Z,9.88
2022-11-05T09:24:40.423Z,8.02
2022-11-05T09:27:13.433Z,12.67
2022-11-05T09:29:41.344Z,9.77
2022-11-05T09:32:08.692Z,7.43
2022-11-05T09:34:36.034Z,7.90
2022-11-05T09:37:03.347Z,8.35
2022-11-05T09:39:30.220Z,8.73
2022-11-05T09:42:02.803Z,6.97
2022-11-05T09:44:35.977Z,11.52
2022-11-05T09:47:06.754Z,7.00
2022-11-05T09:49:44.314Z,6.40
2022-11-05T09:52:18.579Z,6.37
2022-11-05T09:54:46.087Z,6.43
2022-11-05T09:57:17.646Z,10.88
2022-11-05T09:59:52.137Z,11.27
2022-11-05T10:02:27.592Z,6.20
2022-11-05T10:05:09.911Z,6.77
2022-11-05T10:07:45.225Z,6.45
2022-11-05T10:10:41.093Z,6.05
2022-11-05T10:13:37.365Z,8.48
2022-11-05T10:16:22.377Z,7.18
2022-11-05T10:19:09.742Z,8.90
2022-11-05T10:22:05.080Z,11.68
2022-11-05T10:24:24.938Z,9.80
2022-11-05T10:26:54.301Z,9.38
2022-11-05T10:29:32.682Z,9.45
2022-11-05T10:32:01.400Z,8.47
2022-11-05T10:34:33.569Z,10.60
2022-11-05T10:37:00.896Z,9.70
2022-11-05T10:39:35.180Z,12.57
2022-11-05T10:42:01.868Z,11.93
2022-11-05T10:44:43.161Z,9.90
2022-11-05T10:47:47.252Z,11.63
2022-11-05T10:50:19.753Z,12.00
2022-11-05T10:52:57.560Z,11.93
2022-11-05T10:55:32.740Z,9.90
2022-11-05T10:58:27.471Z,12.23
2022-11-05T11:00:54.336Z,12.02
2022-11-05T11:03:46.033Z,13.13
2022-11-05T11:06:27.604Z,11.00
2022-11-05T11:08:57.901Z,11.93
2022-11-05T11:11:37.083Z,11.23
2022-11-05T11:14:24.119Z,13.68
2022-11-05T11:16:51.780Z,12.05
2022-11-05T11:19:21.806Z,11.35
2022-11-05T11:22:12.835Z,11.65
2022-11-05T11:24:42.477Z,10.90
2022-11-05T11:27:22.517Z,11.70
2022-11-05T11:29:55.192Z,10.13
2022-11-05T11:32:22.266Z,11.65
2022-11-05T11:34:52.843Z,10.57
2022-11-05T11:37:34.692Z,11.87
2022-11-05T11:40:20.592Z,12.35
2022-11-05T11:42:59.512Z,12.38
2022-11-05T11:45:46.949Z,9.90
2022-11-05T11:48:21.489Z,10.60
2022-11-05T11:50:49.344Z,10.80
2022-11-05T11:53:22.044Z,10.68
2022-11-05T11:56:13.904Z,9.05
2022-11-05T11:58:46.600Z,13.50
2022-11-05T12:01:42.236Z,11.43
2022-11-05T12:04:30.141Z,9.53
2022-11-05T12:07:15.206Z,10.40
2022-11-05T12:10:15.538Z,8.98
2022-11-05T12:13:10.159Z,11.10
2022-11-05T12:15:55.296Z,12.10
2022-11-05T12:18:54.415Z,12.37
2022-11-05T12:21:52.042Z,9.73
2022-11-05T12:24:48.979Z,10.18
2022-11-05T12:27:27.706Z,11.85
2022-11-05T12:30:14.101Z,11.63
2022-11-05T12:32:48.035Z,11.10
2022-11-05T12:35:48.856Z,11.27
2022-11-05T12:38:35.794Z,13.27
2022-11-05T12:41:29.866Z,12.48
2022-11-05T12:43:56.549Z,12.95
2022-11-05T12:46:57.036Z,13.73
2022-11-05T12:49:30.892Z,14.73
2022-11-05T12:52:03.645Z,12.07
2022-11-05T12:54:59.007Z,12.93
2022-11-05T12:57:28.612Z,14.07
2022-11-05T13:00:03.472Z,12.23
2022-11-05T13:02:40.414Z,13.07
2022-11-05T13:05:15.516Z,11.98
2022-11-05T13:07:51.381Z,13.23
2022-11-05T13:10:18.179Z,13.80
2022-11-05T13:12:53.912Z,15.60
2022-11-05T13:15:35.093Z,14.27
2022-11-05T13:18:09.488Z,13.90
2022-11-05T13:20:42.129Z,16.38
2022-11-05T13:23:34.282Z,13.23
2022-11-05T13:26:13.354Z,13.80
2022-11-05T13:28:46.879Z,17.90
2022-11-05T13:31:18.567Z,11.57
2022-11-05T13:33:48.530Z,13.45
2022-11-05T13:36:41.927Z,12.48
2022-11-05T13:39:15.704Z,14.90
2022-11-05T13:42:06.768Z,16.73
2022-11-05T13:45:01.486Z,16.45
2022-11-05T13:47:37.119Z,17.23
2022-11-05T13:50:22.346Z,15.70
2022-11-05T13:53:11.633Z,16.37
2022-11-05T13:56:04.868Z,14.40
2022-11-05T13:59:10.036Z,17.63
2022-11-05T14:01:49.447Z,14.75
2022-11-05T14:04:43.281Z,16.73
2022-11-05T14:07:27.550Z,16.50
2022-11-05T14:10:33.408Z,16.55
2022-11-05T14:13:14.164Z,13.80
2022-11-05T14:16:02.068Z,15.15
2022-11-05T14:18:45.628Z,21.13
2022-11-05T14:21:27.323Z,17.50
2022-11-05T14:23:56.573Z,14.98
2022-11-05T14:26:26.479Z,14.73
2022-11-05T14:29:04.981Z,15.23
2022-11-05T14:32:08.789Z,17.65
2022-11-05T14:35:04.091Z,15.45
2022-11-05T14:37:42.220Z,15.80
2022-11-05T14:40:26.860Z,15.48
2022-11-05T14:43:00.976Z,16.60
2022-11-05T14:45:29.423Z,15.82
2022-11-05T14:48:01.937Z,17.13
2022-11-05T14:50:40.870Z,18.42
2022-11-05T14:53:26.714Z,16.25
2022-11-05T14:56:12.644Z,16.35
2022-11-05T14:58:41.052Z,16.48
2022-11-05T15:01:29.946Z,16.42
2022-11-05T15:04:01.863Z,16.20
2022-11-05T15:06:34.323Z,17.80
2022-11-05T15:09:07.350Z,16.02
2022-11-05T15:11:40.901Z,19.05
2022-11-05T15:14:20.828Z,18.17
2022-11-05T15:16:54.853Z,16.42
2022-11-05T15:19:29.148Z,19.17
2022-11-05T15:21:59.468Z,16.85
2022-11-05T15:24:29.707Z,15.48
2022-11-05T15:27:04.692Z,17.67
2022-11-05T15:29:32.912Z,17.77
2022-11-05T15:32:00.524Z,16.98
2022-11-05T15:34:30.948Z,16.25
2022-11-05T15:37:12.813Z,17.52
2022-11-05T15:39:45.381Z,17.23
2022-11-05T15:42:17.983Z,16.35
2022-11-05T15:44:46.826Z,17.40
2022-11-05T15:47:22.704Z,17.35
2022-11-05T15:50:02.047Z,16.63
2022-11-05T15:52:36.504Z,17.10
2022-11-05T15:55:14.046Z,18.50
2022-11-05T15:57:51.020Z,14.73
2022-11-05T16:00:22.718Z,15.90
2022-11-05T16:02:55.656Z,20.13
2022-11-05T16:05:23.784Z,18.50
2022-11-05T16:07:50.748Z,18.15
2022-11-05T16:10:23.776Z,18.80
2022-11-05T16:12:50.904Z,18.20
2022-11-05T16:15:22.790Z,16.13
2022-11-05T16:17:58.683Z,15.35
2022-11-05T16:20:27.722Z,20.13
2022-11-05T16:23:00.707Z,16.48
2022-11-05T16:25:39.576Z,16.60
2022-11-05T16:28:27.901Z,15.85
2022-11-05T16:31:05.461Z,17.10
2022-11-05T16:33:37.768Z,17.02
2022-11-05T16:36:05.483Z,16.02
2022-11-05T16:38:32.303Z,16.38
2022-11-05T16:41:00.396Z,17.77
2022-11-05T16:43:27.420Z,21.30
2022-11-05T16:45:57.179Z,17.75
2022-11-05T16:48:24.196Z,17.08
2022-11-05T16:50:51.615Z,18.05
2022-11-05T16:53:18.477Z,17.77
2022-11-05T16:55:45.922Z,16.37
2022-11-05T16:58:25.014Z,23.02
2022-11-05T17:00:56.048Z,18.00
2022-11-05T17:03:22.807Z,16.98
2022-11-05T17:05:50.104Z,17.80
2022-11-05T17:08:17.470Z,16.33
2022-11-05T17:10:44.653Z,18.60
2022-11-05T17:13:16.958Z,15.82
2022-11-05T17:15:47.043Z,19.35
2022-11-05T17:18:18.518Z,22.48
2022-11-05T17:20:54.924Z,20.23
2022-11-05T17:23:26.664Z,20.73
2022-11-05T17:25:59.454Z,18.55
2022-11-05T17:28:27.935Z,20.58
2022-11-05T17:30:58.135Z,18.60
2022-11-05T17:33:25.104Z,19.65
2022-11-05T17:35:52.894Z,19.77
2022-11-05T17:38:20.411Z,18.10
2022-11-05T17:40:47.718Z,18.05
2022-11-05T17:43:16.105Z,20.27
2022-11-05T17:45:45.302Z,17.10
2022-11-05T17:48:13.684Z,16.63
2022-11-05T17:50:46.539Z,17.58
2022-11-05T17:53:15.383Z,19.10
2022-11-05T17:55:46.379Z,17.08
2022-11-05T17:58:13.599Z,16.80
2022-11-05T18:00:41.497Z,17.52
2022-11-05T18:03:10.520Z,19.08
2022-11-05T18:05:38.007Z,19.20
2022-11-05T18:08:05.176Z,23.60
2022-11-05T18:10:32.592Z,15.82
2022-11-05T18:12:59.354Z,17.95
2022-11-05T18:15:26.123Z,17.67
2022-11-05T18:17:53.030Z,18.27
2022-11-05T18:20:20.159Z,18.70
2022-11-05T18:22:49.866Z,17.38
2022-11-05T18:25:17.537Z,18.90
2022-11-05T18:27:44.448Z,18.35
2022-11-05T18:30:15.363Z,17.92
2022-11-05T18:32:44.012Z,19.05
2022-11-05T18:35:11.980Z,19.25
2022-11-05T18:37:39.128Z,20.85
2022-11-05T18:40:07.633Z,19.67
2022-11-05T18:42:34.418Z,16.75
2022-11-05T18:45:01.257Z,18.88
2022-11-05T18:47:28.288Z,18.70
2022-11-05T18:49:55.157Z,18.85
2022-11-05T18:52:21.881Z,16.05
2022-11-05T18:54:48.639Z,14.80
2022-11-05T18:57:15.351Z,16.38
2022-11-05T18:59:46.676Z,15.85
2022-11-05T19:02:14.475Z,16.10
2022-11-05T19:04:46.857Z,14.43
2022-11-05T19:07:27.530Z,18.67
2022-11-05T19:09:54.296Z,16.08
2022-11-05T19:12:21.129Z,13.05
2022-11-05T19:14:47.918Z,14.77
2022-11-05T19:17:14.685Z,11.50
2022-11-05T19:19:41.563Z,11.68
2022-11-05T19:22:08.350Z,11.60
2022-11-05T19:24:35.129Z,11.75
2022-11-05T19:27:01.951Z,11.43
2022-11-05T19:29:28.756Z,11.02
2022-11-05T19:31:55.544Z,10.48
2022-11-05T19:34:22.301Z,11.65
2022-11-05T19:36:49.115Z,11.05
2022-11-05T19:39:15.806Z,9.98
2022-11-05T19:41:42.685Z,9.70
2022-11-05T19:44:10.103Z,10.00
2022-11-05T19:46:36.973Z,9.77
2022-11-05T19:49:03.775Z,9.80
2022-11-05T19:51:32.329Z,7.47
2022-11-05T19:54:00.990Z,8.68
2022-11-05T19:56:33.767Z,8.52
2022-11-05T19:59:01.341Z,8.88
2022-11-05T20:01:29.420Z,8.93
2022-11-05T20:03:58.218Z,7.90
2022-11-05T20:06:30.855Z,8.43
2022-11-05T20:11:48.367Z,7.10
2022-11-05T20:14:15.583Z,7.53
2022-11-05T20:16:42.845Z,7.40
2022-11-05T20:19:12.939Z,7.10
2022-11-05T20:21:39.927Z,6.47
2022-11-05T20:24:07.976Z,7.90
2022-11-05T20:26:35.015Z,7.75
2022-11-05T20:29:01.970Z,7.95
2022-11-05T20:31:29.167Z,7.97
2022-11-05T20:33:56.816Z,7.32
2022-11-05T20:36:25.669Z,7.90
2022-11-05T20:39:04.028Z,7.57
2022-11-05T20:41:31.550Z,7.75
2022-11-05T20:43:58.255Z,8.68
2022-11-05T20:46:25.642Z,8.85
2022-11-05T20:48:53.996Z,7.93
2022-11-05T20:51:22.396Z,8.90
2022-11-05T20:53:53.446Z,8.40
2022-11-05T20:56:26.060Z,7.80
2022-11-05T20:58:53.807Z,8.05
2022-11-05T21:01:20.900Z,7.97
2022-11-05T21:03:48.368Z,8.35
2022-11-05T21:06:15.827Z,7.35
2022-11-05T21:08:43.540Z,8.90
2022-11-05T21:11:10.994Z,8.15
2022-11-05T21:13:38.219Z,9.00
2022-11-05T21:16:07.242Z,8.95
2022-11-05T21:18:36.507Z,9.38
2022-11-05T21:21:12.612Z,9.50
2022-11-05T21:23:39.581Z,8.65
2022-11-05T21:26:08.268Z,9.45
2022-11-05T21:28:38.476Z,8.93
2022-11-05T21:31:06.979Z,8.40
2022-11-05T21:33:34.028Z,10.60
2022-11-05T21:36:07.020Z,9.98
2022-11-05T21:38:33.878Z,9.25
2022-11-05T21:41:02.598Z,9.40
2022-11-05T21:43:29.372Z,10.27
2022-11-05T21:45:56.218Z,9.93
2022-11-05T21:48:23.101Z,10.95
2022-11-05T21:51:11.350Z,9.77
2022-11-05T21:53:58.348Z,8.63
2022-11-05T21:56:45.456Z,9.70
2022-11-05T21:59:34.279Z,10.10
2022-11-05T22:02:01.668Z,9.25
2022-11-05T22:04:35.605Z,10.00
2022-11-05T22:07:02.682Z,9.88
2022-11-05T22:09:29.845Z,9.40
2022-11-05T22:11:56.667Z,10.32
2022-11-05T22:14:24.154Z,10.07
2022-11-05T22:16:51.129Z,9.10
2022-11-05T22:19:18.536Z,11.80
2022-11-05T22:21:45.712Z,10.95
2022-11-05T22:24:12.496Z,11.00
2022-11-05T22:26:39.896Z,9.07
2022-11-05T22:29:07.326Z,9.35
2022-11-05T22:31:36.553Z,9.18
2022-11-05T22:34:05.289Z,11.30
2022-11-05T22:36:33.758Z,10.57
2022-11-05T22:39:01.397Z,10.15
2022-11-05T22:41:28.598Z,11.52
2022-11-05T22:43:55.884Z,10.30
2022-11-05T22:46:24.599Z,12.40
2022-11-05T22:48:52.126Z,9.63
2022-11-05T22:51:25.415Z,10.73
2022-11-05T22:53:52.877Z,11.90
2022-11-05T22:56:22.533Z,9.80
2022-11-05T22:58:49.392Z,10.88
2022-11-05T23:01:17.623Z,11.75
2022-11-05T23:03:46.827Z,12.80
2022-11-05T23:06:39.924Z,12.73
2022-11-05T23:09:32.078Z,15.02
2022-11-05T23:11:59.508Z,12.85
2022-11-05T23:14:26.903Z,14.40
2022-11-05T23:17:12.300Z,13.85
2022-11-05T23:19:58.114Z,18.52
2022-11-05T23:22:46.305Z,20.15
2022-11-05T23:25:22.017Z,19.77
2022-11-05T23:27:50.680Z,21.50
2022-11-05T23:30:20.766Z,24.00
2022-11-05T23:32:48.338Z,19.08
2022-11-05T23:35:15.942Z,19.55
2022-11-05T23:38:01.259Z,17.58
2022-11-05T23:40:52.005Z,15.60
2022-11-05T23:43:37.546Z,17.27
2022-11-05T23:46:22.783Z,14.73
2022-11-05T23:48:50.720Z,18.17
2022-11-05T23:51:17.519Z,15.85
2022-11-05T23:53:44.361Z,15.50
2022-11-05T23:56:13.698Z,16.63
2022-11-05T23:58:42.036Z,17.80
